sensor_id;sensor_type;location;lat;lon;timestamp;pressure;altitude;pressure_sealevel;temperature
69435;BMP180;56625;54.322;18.582;2023-02-24T00:01:55;99757.80;;;5.20
69435;BMP180;56625;54.322;18.582;2023-02-24T00:04:35;99757.80;;;5.20
69435;BMP180;56625;54.322;18.582;2023-02-24T00:07:04;99757.40;;;5.20
69435;BMP180;56625;54.322;18.582;2023-02-24T00:09:31;99753.80;;;5.20
69435;BMP180;56625;54.322;18.582;2023-02-24T00:12:03;99751.80;;;5.20
69435;BMP180;56625;54.322;18.582;2023-02-24T00:14:35;99746.80;;;5.20
69435;BMP180;56625;54.322;18.582;2023-02-24T00:17:02;99747.80;;;5.20
69435;BMP180;56625;54.322;18.582;2023-02-24T00:19:30;99742.00;;;5.20
69435;BMP180;56625;54.322;18.582;2023-02-24T00:21:57;99740.40;;;5.20
69435;BMP180;56625;54.322;18.582;2023-02-24T00:24:26;99739.40;;;5.20
69435;BMP180;56625;54.322;18.582;2023-02-24T00:26:56;99738.60;;;5.18
69435;BMP180;56625;54.322;18.582;2023-02-24T00:29:27;99732.60;;;5.12
69435;BMP180;56625;54.322;18.582;2023-02-24T00:31:56;99735.20;;;5.10
69435;BMP180;56625;54.322;18.582;2023-02-24T00:34:31;99732.40;;;5.10
69435;BMP180;56625;54.322;18.582;2023-02-24T00:36:59;99729.00;;;5.10
69435;BMP180;56625;54.322;18.582;2023-02-24T00:39:27;99725.80;;;5.10
69435;BMP180;56625;54.322;18.582;2023-02-24T00:42:00;99723.40;;;5.10
69435;BMP180;56625;54.322;18.582;2023-02-24T00:44:36;99717.20;;;5.10
69435;BMP180;56625;54.322;18.582;2023-02-24T00:47:07;99711.20;;;5.10
69435;BMP180;56625;54.322;18.582;2023-02-24T00:49:35;99710.80;;;5.10
69435;BMP180;56625;54.322;18.582;2023-02-24T00:52:10;99704.00;;;5.10
69435;BMP180;56625;54.322;18.582;2023-02-24T00:54:41;99703.60;;;5.10
69435;BMP180;56625;54.322;18.582;2023-02-24T00:57:08;99703.20;;;5.10
69435;BMP180;56625;54.322;18.582;2023-02-24T00:59:35;99695.40;;;5.10
69435;BMP180;56625;54.322;18.582;2023-02-24T01:02:02;99690.40;;;5.10
69435;BMP180;56625;54.322;18.582;2023-02-24T01:04:29;99685.20;;;5.10
69435;BMP180;56625;54.322;18.582;2023-02-24T01:06:56;99682.80;;;5.10
69435;BMP180;56625;54.322;18.582;2023-02-24T01:09:29;99677.80;;;5.10
69435;BMP180;56625;54.322;18.582;2023-02-24T01:11:57;99674.80;;;5.10
69435;BMP180;56625;54.322;18.582;2023-02-24T01:14:51;99669.20;;;5.10
69435;BMP180;56625;54.322;18.582;2023-02-24T01:17:20;99661.60;;;5.10
69435;BMP180;56625;54.322;18.582;2023-02-24T01:19:48;99658.20;;;5.10
69435;BMP180;56625;54.322;18.582;2023-02-24T01:22:18;99651.80;;;5.10
69435;BMP180;56625;54.322;18.582;2023-02-24T01:24:46;99647.20;;;5.14
69435;BMP180;56625;54.322;18.582;2023-02-24T01:27:15;99655.80;;;5.20
69435;BMP180;56625;54.322;18.582;2023-02-24T01:29:46;99649.20;;;5.20
69435;BMP180;56625;54.322;18.582;2023-02-24T01:32:18;99652.00;;;5.20
69435;BMP180;56625;54.322;18.582;2023-02-24T01:34:50;99645.00;;;5.20
69435;BMP180;56625;54.322;18.582;2023-02-24T01:37:19;99642.80;;;5.20
69435;BMP180;56625;54.322;18.582;2023-02-24T01:39:46;99639.40;;;5.20
69435;BMP180;56625;54.322;18.582;2023-02-24T01:42:17;99639.60;;;5.20
69435;BMP180;56625;54.322;18.582;2023-02-24T01:47:15;99635.80;;;5.28
69435;BMP180;56625;54.322;18.582;2023-02-24T01:49:49;99639.20;;;5.30
69435;BMP180;56625;54.322;18.582;2023-02-24T01:52:21;99635.80;;;5.30
69435;BMP180;56625;54.322;18.582;2023-02-24T01:54:59;99633.00;;;5.30
69435;BMP180;56625;54.322;18.582;2023-02-24T01:57:30;99629.80;;;5.30
69435;BMP180;56625;54.322;18.582;2023-02-24T01:59:59;99625.80;;;5.30
69435;BMP180;56625;54.322;18.582;2023-02-24T02:02:49;99616.00;;;5.30
69435;BMP180;56625;54.322;18.582;2023-02-24T02:05:18;99613.80;;;5.40
69435;BMP180;56625;54.322;18.582;2023-02-24T02:07:44;99608.80;;;5.38
69435;BMP180;56625;54.322;18.582;2023-02-24T02:10:12;99608.80;;;5.34
69435;BMP180;56625;54.322;18.582;2023-02-24T02:12:42;99605.60;;;5.30
69435;BMP180;56625;54.322;18.582;2023-02-24T02:15:13;99598.60;;;5.32
69435;BMP180;56625;54.322;18.582;2023-02-24T02:23:49;99592.60;;;5.40
69435;BMP180;56625;54.322;18.582;2023-02-24T02:35:50;99590.80;;;5.40
69435;BMP180;56625;54.322;18.582;2023-02-24T02:38:36;99581.80;;;5.40
69435;BMP180;56625;54.322;18.582;2023-02-24T02:41:23;99583.60;;;5.46
69435;BMP180;56625;54.322;18.582;2023-02-24T02:47:09;99575.60;;;5.50
69435;BMP180;56625;54.322;18.582;2023-02-24T02:49:44;99578.20;;;5.50
69435;BMP180;56625;54.322;18.582;2023-02-24T02:52:32;99582.40;;;5.50
69435;BMP180;56625;54.322;18.582;2023-02-24T02:55:11;99577.60;;;5.50
69435;BMP180;56625;54.322;18.582;2023-02-24T02:57:47;99575.20;;;5.50
69435;BMP180;56625;54.322;18.582;2023-02-24T03:00:24;99572.80;;;5.50
69435;BMP180;56625;54.322;18.582;2023-02-24T03:03:03;99562.60;;;5.50
69435;BMP180;56625;54.322;18.582;2023-02-24T03:05:41;99559.80;;;5.50
69435;BMP180;56625;54.322;18.582;2023-02-24T03:08:21;99554.80;;;5.50
69435;BMP180;56625;54.322;18.582;2023-02-24T03:10:51;99553.40;;;5.50
69435;BMP180;56625;54.322;18.582;2023-02-24T03:13:23;99556.80;;;5.52
69435;BMP180;56625;54.322;18.582;2023-02-24T03:15:58;99556.80;;;5.54
69435;BMP180;56625;54.322;18.582;2023-02-24T03:18:43;99552.20;;;5.60
69435;BMP180;56625;54.322;18.582;2023-02-24T03:21:17;99551.80;;;5.60
69435;BMP180;56625;54.322;18.582;2023-02-24T03:23:50;99549.60;;;5.60
69435;BMP180;56625;54.322;18.582;2023-02-24T03:26:29;99543.40;;;5.60
69435;BMP180;56625;54.322;18.582;2023-02-24T03:29:08;99542.40;;;5.60
69435;BMP180;56625;54.322;18.582;2023-02-24T03:31:47;99539.40;;;5.68
69435;BMP180;56625;54.322;18.582;2023-02-24T03:34:26;99538.80;;;5.66
69435;BMP180;56625;54.322;18.582;2023-02-24T03:36:56;99535.80;;;5.60
69435;BMP180;56625;54.322;18.582;2023-02-24T03:39:23;99531.40;;;5.60
69435;BMP180;56625;54.322;18.582;2023-02-24T03:42:13;99536.20;;;5.60
69435;BMP180;56625;54.322;18.582;2023-02-24T03:44:43;99535.00;;;5.64
69435;BMP180;56625;54.322;18.582;2023-02-24T03:47:13;99527.80;;;5.60
69435;BMP180;56625;54.322;18.582;2023-02-24T03:49:41;99522.20;;;5.60
69435;BMP180;56625;54.322;18.582;2023-02-24T03:52:19;99522.00;;;5.60
69435;BMP180;56625;54.322;18.582;2023-02-24T03:55:17;99518.00;;;5.60
69435;BMP180;56625;54.322;18.582;2023-02-24T04:06:51;99508.40;;;5.60
69435;BMP180;56625;54.322;18.582;2023-02-24T04:12:25;99504.60;;;5.60
69435;BMP180;56625;54.322;18.582;2023-02-24T04:15:07;99505.20;;;5.60
69435;BMP180;56625;54.322;18.582;2023-02-24T04:17:49;99500.20;;;5.60
69435;BMP180;56625;54.322;18.582;2023-02-24T04:20:21;99496.20;;;5.60
69435;BMP180;56625;54.322;18.582;2023-02-24T04:22:56;99496.00;;;5.64
69435;BMP180;56625;54.322;18.582;2023-02-24T04:25:26;99494.60;;;5.70
69435;BMP180;56625;54.322;18.582;2023-02-24T04:27:57;99498.60;;;5.70
69435;BMP180;56625;54.322;18.582;2023-02-24T04:30:29;99492.80;;;5.70
69435;BMP180;56625;54.322;18.582;2023-02-24T04:32:57;99497.60;;;5.70
69435;BMP180;56625;54.322;18.582;2023-02-24T04:35:25;99497.00;;;5.70
69435;BMP180;56625;54.322;18.582;2023-02-24T04:37:52;99495.20;;;5.70
69435;BMP180;56625;54.322;18.582;2023-02-24T04:40:21;99496.80;;;5.70
69435;BMP180;56625;54.322;18.582;2023-02-24T04:42:50;99494.00;;;5.70
69435;BMP180;56625;54.322;18.582;2023-02-24T04:45:28;99493.20;;;5.70
69435;BMP180;56625;54.322;18.582;2023-02-24T04:47:59;99491.60;;;5.70
69435;BMP180;56625;54.322;18.582;2023-02-24T04:50:31;99489.80;;;5.70
69435;BMP180;56625;54.322;18.582;2023-02-24T04:53:03;99488.80;;;5.70
69435;BMP180;56625;54.322;18.582;2023-02-24T04:55:36;99484.20;;;5.70
69435;BMP180;56625;54.322;18.582;2023-02-24T04:58:19;99483.40;;;5.70
69435;BMP180;56625;54.322;18.582;2023-02-24T05:00:50;99483.20;;;5.68
69435;BMP180;56625;54.322;18.582;2023-02-24T05:03:20;99478.80;;;5.68
69435;BMP180;56625;54.322;18.582;2023-02-24T05:05:51;99480.80;;;5.68
69435;BMP180;56625;54.322;18.582;2023-02-24T05:08:18;99478.60;;;5.64
69435;BMP180;56625;54.322;18.582;2023-02-24T05:10:46;99476.40;;;5.62
69435;BMP180;56625;54.322;18.582;2023-02-24T05:13:20;99478.80;;;5.62
69435;BMP180;56625;54.322;18.582;2023-02-24T05:15:47;99467.80;;;5.60
69435;BMP180;56625;54.322;18.582;2023-02-24T05:18:16;99470.60;;;5.60
69435;BMP180;56625;54.322;18.582;2023-02-24T05:20:49;99469.00;;;5.60
69435;BMP180;56625;54.322;18.582;2023-02-24T05:23:41;99461.40;;;5.60
69435;BMP180;56625;54.322;18.582;2023-02-24T05:26:15;99458.20;;;5.52
69435;BMP180;56625;54.322;18.582;2023-02-24T05:28:45;99461.60;;;5.54
69435;BMP180;56625;54.322;18.582;2023-02-24T05:31:18;99453.20;;;5.50
69435;BMP180;56625;54.322;18.582;2023-02-24T05:33:50;99451.20;;;5.50
69435;BMP180;56625;54.322;18.582;2023-02-24T05:36:21;99452.20;;;5.50
69435;BMP180;56625;54.322;18.582;2023-02-24T05:38:51;99448.60;;;5.50
69435;BMP180;56625;54.322;18.582;2023-02-24T05:41:25;99450.00;;;5.48
69435;BMP180;56625;54.322;18.582;2023-02-24T05:43:58;99444.60;;;5.40
69435;BMP180;56625;54.322;18.582;2023-02-24T05:46:31;99440.40;;;5.40
69435;BMP180;56625;54.322;18.582;2023-02-24T05:49:11;99444.20;;;5.40
69435;BMP180;56625;54.322;18.582;2023-02-24T05:51:40;99443.40;;;5.40
69435;BMP180;56625;54.322;18.582;2023-02-24T05:54:12;99436.60;;;5.40
69435;BMP180;56625;54.322;18.582;2023-02-24T05:56:40;99438.60;;;5.30
69435;BMP180;56625;54.322;18.582;2023-02-24T05:59:12;99432.00;;;5.30
69435;BMP180;56625;54.322;18.582;2023-02-24T06:01:43;99431.20;;;5.30
69435;BMP180;56625;54.322;18.582;2023-02-24T06:04:15;99430.40;;;5.30
69435;BMP180;56625;54.322;18.582;2023-02-24T06:07:17;99430.20;;;5.28
69435;BMP180;56625;54.322;18.582;2023-02-24T06:09:45;99423.40;;;5.20
69435;BMP180;56625;54.322;18.582;2023-02-24T06:12:17;99421.60;;;5.20
69435;BMP180;56625;54.322;18.582;2023-02-24T06:14:44;99424.40;;;5.20
69435;BMP180;56625;54.322;18.582;2023-02-24T06:17:15;99424.60;;;5.20
69435;BMP180;56625;54.322;18.582;2023-02-24T06:19:47;99425.60;;;5.20
69435;BMP180;56625;54.322;18.582;2023-02-24T06:22:17;99421.80;;;5.20
69435;BMP180;56625;54.322;18.582;2023-02-24T06:24:47;99420.40;;;5.10
69435;BMP180;56625;54.322;18.582;2023-02-24T06:27:17;99426.40;;;5.10
69435;BMP180;56625;54.322;18.582;2023-02-24T06:29:47;99422.80;;;5.10
69435;BMP180;56625;54.322;18.582;2023-02-24T06:32:20;99419.40;;;5.00
69435;BMP180;56625;54.322;18.582;2023-02-24T06:34:50;99419.40;;;5.00
69435;BMP180;56625;54.322;18.582;2023-02-24T06:37:17;99418.60;;;5.00
69435;BMP180;56625;54.322;18.582;2023-02-24T06:39:44;99418.00;;;4.96
69435;BMP180;56625;54.322;18.582;2023-02-24T06:42:13;99417.40;;;4.90
69435;BMP180;56625;54.322;18.582;2023-02-24T06:44:40;99415.00;;;4.90
69435;BMP180;56625;54.322;18.582;2023-02-24T06:47:11;99417.80;;;4.80
69435;BMP180;56625;54.322;18.582;2023-02-24T06:49:39;99409.60;;;4.80
69435;BMP180;56625;54.322;18.582;2023-02-24T06:52:08;99412.20;;;4.80
69435;BMP180;56625;54.322;18.582;2023-02-24T06:54:36;99409.40;;;4.70
69435;BMP180;56625;54.322;18.582;2023-02-24T06:57:03;99401.00;;;4.86
69435;BMP180;56625;54.322;18.582;2023-02-24T06:59:30;99406.40;;;4.80
69435;BMP180;56625;54.322;18.582;2023-02-24T07:01:59;99408.20;;;4.70
69435;BMP180;56625;54.322;18.582;2023-02-24T07:04:27;99406.20;;;4.54
69435;BMP180;56625;54.322;18.582;2023-02-24T07:06:58;99413.60;;;4.50
69435;BMP180;56625;54.322;18.582;2023-02-24T07:09:30;99410.60;;;4.40
69435;BMP180;56625;54.322;18.582;2023-02-24T07:11:57;99411.40;;;4.30
69435;BMP180;56625;54.322;18.582;2023-02-24T07:14:28;99409.00;;;4.20
69435;BMP180;56625;54.322;18.582;2023-02-24T07:16:58;99410.80;;;4.10
69435;BMP180;56625;54.322;18.582;2023-02-24T07:19:29;99407.80;;;4.00
69435;BMP180;56625;54.322;18.582;2023-02-24T07:22:00;99408.00;;;4.00
69435;BMP180;56625;54.322;18.582;2023-02-24T07:24:33;99404.20;;;3.90
69435;BMP180;56625;54.322;18.582;2023-02-24T07:27:07;99400.60;;;3.90
69435;BMP180;56625;54.322;18.582;2023-02-24T07:29:35;99399.20;;;3.90
69435;BMP180;56625;54.322;18.582;2023-02-24T07:32:06;99400.40;;;3.90
69435;BMP180;56625;54.322;18.582;2023-02-24T07:34:34;99390.60;;;3.90
69435;BMP180;56625;54.322;18.582;2023-02-24T07:37:05;99390.80;;;3.90
69435;BMP180;56625;54.322;18.582;2023-02-24T07:39:35;99390.20;;;3.90
69435;BMP180;56625;54.322;18.582;2023-02-24T07:42:03;99387.40;;;3.90
69435;BMP180;56625;54.322;18.582;2023-02-24T07:44:30;99383.00;;;3.92
69435;BMP180;56625;54.322;18.582;2023-02-24T07:46:58;99378.80;;;4.00
69435;BMP180;56625;54.322;18.582;2023-02-24T07:49:25;99376.80;;;4.00
69435;BMP180;56625;54.322;18.582;2023-02-24T07:51:55;99373.60;;;4.00
69435;BMP180;56625;54.322;18.582;2023-02-24T07:54:25;99372.80;;;4.00
69435;BMP180;56625;54.322;18.582;2023-02-24T07:56:56;99371.20;;;3.90
69435;BMP180;56625;54.322;18.582;2023-02-24T07:59:27;99371.40;;;3.90
69435;BMP180;56625;54.322;18.582;2023-02-24T08:01:55;99365.40;;;3.80
69435;BMP180;56625;54.322;18.582;2023-02-24T08:04:29;99359.80;;;3.60
69435;BMP180;56625;54.322;18.582;2023-02-24T08:06:58;99359.40;;;3.58
69435;BMP180;56625;54.322;18.582;2023-02-24T08:09:31;99364.00;;;3.42
69435;BMP180;56625;54.322;18.582;2023-02-24T08:12:20;99369.80;;;3.40
69435;BMP180;56625;54.322;18.582;2023-02-24T08:14:51;99365.00;;;3.30
69435;BMP180;56625;54.322;18.582;2023-02-24T08:17:23;99368.80;;;3.30
69435;BMP180;56625;54.322;18.582;2023-02-24T08:19:53;99363.40;;;3.20
69435;BMP180;56625;54.322;18.582;2023-02-24T08:22:43;99357.40;;;3.20
69435;BMP180;56625;54.322;18.582;2023-02-24T08:25:14;99353.20;;;3.20
69435;BMP180;56625;54.322;18.582;2023-02-24T08:27:46;99358.60;;;3.20
69435;BMP180;56625;54.322;18.582;2023-02-24T08:30:37;99359.40;;;3.20
69435;BMP180;56625;54.322;18.582;2023-02-24T08:33:09;99355.40;;;3.12
69435;BMP180;56625;54.322;18.582;2023-02-24T08:35:38;99358.60;;;3.12
69435;BMP180;56625;54.322;18.582;2023-02-24T08:38:14;99356.00;;;3.10
69435;BMP180;56625;54.322;18.582;2023-02-24T08:40:47;99356.60;;;3.10
69435;BMP180;56625;54.322;18.582;2023-02-24T08:43:30;99346.60;;;3.10
69435;BMP180;56625;54.322;18.582;2023-02-24T08:48:47;99355.60;;;3.10
69435;BMP180;56625;54.322;18.582;2023-02-24T08:51:36;99353.60;;;3.10
69435;BMP180;56625;54.322;18.582;2023-02-24T08:54:06;99351.20;;;3.00
69435;BMP180;56625;54.322;18.582;2023-02-24T08:56:37;99352.40;;;3.00
69435;BMP180;56625;54.322;18.582;2023-02-24T08:59:11;99349.60;;;3.00
69435;BMP180;56625;54.322;18.582;2023-02-24T09:01:58;99349.20;;;3.00
69435;BMP180;56625;54.322;18.582;2023-02-24T09:05:06;99347.60;;;2.90
69435;BMP180;56625;54.322;18.582;2023-02-24T09:07:41;99346.00;;;2.90
69435;BMP180;56625;54.322;18.582;2023-02-24T09:10:16;99344.80;;;2.90
69435;BMP180;56625;54.322;18.582;2023-02-24T09:12:43;99346.00;;;2.80
69435;BMP180;56625;54.322;18.582;2023-02-24T09:15:12;99341.20;;;2.80
69435;BMP180;56625;54.322;18.582;2023-02-24T09:17:44;99339.60;;;2.80
69435;BMP180;56625;54.322;18.582;2023-02-24T09:20:18;99343.40;;;2.74
69435;BMP180;56625;54.322;18.582;2023-02-24T09:23:04;99317.20;;;2.80
69435;BMP180;56625;54.322;18.582;2023-02-24T09:25:38;99317.40;;;2.80
69435;BMP180;56625;54.322;18.582;2023-02-24T09:28:19;99313.80;;;3.00
69435;BMP180;56625;54.322;18.582;2023-02-24T09:30:59;99312.60;;;3.10
69435;BMP180;56625;54.322;18.582;2023-02-24T09:33:37;99305.00;;;3.20
69435;BMP180;56625;54.322;18.582;2023-02-24T09:38:41;99292.40;;;3.34
69435;BMP180;56625;54.322;18.582;2023-02-24T09:41:48;99283.00;;;3.40
69435;BMP180;56625;54.322;18.582;2023-02-24T09:44:33;99284.60;;;3.50
69435;BMP180;56625;54.322;18.582;2023-02-24T09:47:41;99275.20;;;3.60
69435;BMP180;56625;54.322;18.582;2023-02-24T09:53:13;99257.60;;;3.70
69435;BMP180;56625;54.322;18.582;2023-02-24T09:56:16;99257.80;;;3.80
69435;BMP180;56625;54.322;18.582;2023-02-24T09:59:29;99257.40;;;3.80
69435;BMP180;56625;54.322;18.582;2023-02-24T10:02:45;99251.80;;;3.90
69435;BMP180;56625;54.322;18.582;2023-02-24T10:05:45;99242.20;;;3.90
69435;BMP180;56625;54.322;18.582;2023-02-24T10:08:28;99245.00;;;3.90
69435;BMP180;56625;54.322;18.582;2023-02-24T10:10:56;99240.40;;;4.00
69435;BMP180;56625;54.322;18.582;2023-02-24T10:13:40;99238.80;;;4.04
69435;BMP180;56625;54.322;18.582;2023-02-24T10:16:16;99227.40;;;4.00
69435;BMP180;56625;54.322;18.582;2023-02-24T10:19:02;99227.40;;;4.00
69435;BMP180;56625;54.322;18.582;2023-02-24T10:21:57;99220.00;;;4.00
69435;BMP180;56625;54.322;18.582;2023-02-24T10:24:47;99221.20;;;4.02
69435;BMP180;56625;54.322;18.582;2023-02-24T10:27:21;99218.00;;;4.10
69435;BMP180;56625;54.322;18.582;2023-02-24T10:32:54;99204.00;;;4.16
69435;BMP180;56625;54.322;18.582;2023-02-24T10:35:29;99202.40;;;4.10
69435;BMP180;56625;54.322;18.582;2023-02-24T10:38:02;99196.20;;;4.12
69435;BMP180;56625;54.322;18.582;2023-02-24T10:40:47;99198.80;;;4.10
69435;BMP180;56625;54.322;18.582;2023-02-24T10:43:25;99180.00;;;4.12
69435;BMP180;56625;54.322;18.582;2023-02-24T10:46:01;99172.40;;;4.30
69435;BMP180;56625;54.322;18.582;2023-02-24T10:48:52;99172.60;;;4.40
69435;BMP180;56625;54.322;18.582;2023-02-24T10:51:39;99165.20;;;4.40
69435;BMP180;56625;54.322;18.582;2023-02-24T10:54:18;99164.20;;;4.40
69435;BMP180;56625;54.322;18.582;2023-02-24T10:56:51;99169.20;;;4.50
69435;BMP180;56625;54.322;18.582;2023-02-24T10:59:25;99164.00;;;4.50
69435;BMP180;56625;54.322;18.582;2023-02-24T11:02:26;99162.80;;;4.50
69435;BMP180;56625;54.322;18.582;2023-02-24T11:05:05;99154.20;;;4.50
69435;BMP180;56625;54.322;18.582;2023-02-24T11:08:12;99145.20;;;4.50
69435;BMP180;56625;54.322;18.582;2023-02-24T11:11:31;99142.00;;;4.50
69435;BMP180;56625;54.322;18.582;2023-02-24T11:14:19;99138.80;;;4.50
69435;BMP180;56625;54.322;18.582;2023-02-24T11:17:20;99134.80;;;4.40
69435;BMP180;56625;54.322;18.582;2023-02-24T11:20:28;99129.20;;;4.46
69435;BMP180;56625;54.322;18.582;2023-02-24T11:23:26;99122.80;;;4.50
69435;BMP180;56625;54.322;18.582;2023-02-24T11:25:59;99116.80;;;4.50
69435;BMP180;56625;54.322;18.582;2023-02-24T11:29:30;99111.00;;;4.50
69435;BMP180;56625;54.322;18.582;2023-02-24T11:34:42;99097.40;;;4.60
69435;BMP180;56625;54.322;18.582;2023-02-24T11:37:39;99094.20;;;4.60
69435;BMP180;56625;54.322;18.582;2023-02-24T11:40:19;99094.60;;;4.70
69435;BMP180;56625;54.322;18.582;2023-02-24T11:42:53;99089.00;;;4.70
69435;BMP180;56625;54.322;18.582;2023-02-24T11:45:47;99086.60;;;4.80
69435;BMP180;56625;54.322;18.582;2023-02-24T11:48:26;99075.60;;;4.80
69435;BMP180;56625;54.322;18.582;2023-02-24T11:51:01;99074.20;;;4.90
69435;BMP180;56625;54.322;18.582;2023-02-24T11:56:12;99071.00;;;4.98
69435;BMP180;56625;54.322;18.582;2023-02-24T11:59:34;99072.20;;;4.98
69435;BMP180;56625;54.322;18.582;2023-02-24T12:05:14;99065.40;;;4.90
69435;BMP180;56625;54.322;18.582;2023-02-24T12:07:54;99056.00;;;4.90
69435;BMP180;56625;54.322;18.582;2023-02-24T12:10:33;99053.20;;;4.90
69435;BMP180;56625;54.322;18.582;2023-02-24T12:16:01;99048.60;;;4.90
69435;BMP180;56625;54.322;18.582;2023-02-24T12:18:46;99041.00;;;4.90
69435;BMP180;56625;54.322;18.582;2023-02-24T12:21:37;99037.20;;;4.90
69435;BMP180;56625;54.322;18.582;2023-02-24T12:24:11;99039.00;;;4.90
69435;BMP180;56625;54.322;18.582;2023-02-24T12:27:08;99041.20;;;4.90
69435;BMP180;56625;54.322;18.582;2023-02-24T12:30:32;99033.60;;;4.80
69435;BMP180;56625;54.322;18.582;2023-02-24T12:39:29;99026.00;;;4.80
69435;BMP180;56625;54.322;18.582;2023-02-24T12:45:17;99012.40;;;4.78
69435;BMP180;56625;54.322;18.582;2023-02-24T12:48:15;99005.60;;;4.78
69435;BMP180;56625;54.322;18.582;2023-02-24T12:53:48;99000.20;;;4.80
69435;BMP180;56625;54.322;18.582;2023-02-24T12:56:51;98996.80;;;4.80
69435;BMP180;56625;54.322;18.582;2023-02-24T12:59:27;98991.40;;;4.70
69435;BMP180;56625;54.322;18.582;2023-02-24T13:08:14;98975.20;;;4.80
69435;BMP180;56625;54.322;18.582;2023-02-24T13:13:55;98975.00;;;4.82
69435;BMP180;56625;54.322;18.582;2023-02-24T13:16:34;98969.00;;;4.82
69435;BMP180;56625;54.322;18.582;2023-02-24T13:19:28;98964.40;;;4.80
69435;BMP180;56625;54.322;18.582;2023-02-24T13:22:06;98954.40;;;4.90
69435;BMP180;56625;54.322;18.582;2023-02-24T13:24:35;98952.60;;;4.90
69435;BMP180;56625;54.322;18.582;2023-02-24T13:28:19;98958.80;;;4.90
69435;BMP180;56625;54.322;18.582;2023-02-24T13:33:03;98948.00;;;4.94
69435;BMP180;56625;54.322;18.582;2023-02-24T13:35:35;98950.60;;;4.92
69435;BMP180;56625;54.322;18.582;2023-02-24T13:41:32;98945.40;;;4.90
69435;BMP180;56625;54.322;18.582;2023-02-24T13:50:37;98927.80;;;5.00
69435;BMP180;56625;54.322;18.582;2023-02-24T14:00:09;98925.60;;;4.90
69435;BMP180;56625;54.322;18.582;2023-02-24T14:02:41;98927.80;;;4.80
69435;BMP180;56625;54.322;18.582;2023-02-24T14:05:34;98928.20;;;4.80
69435;BMP180;56625;54.322;18.582;2023-02-24T14:08:03;98928.80;;;4.70
69435;BMP180;56625;54.322;18.582;2023-02-24T14:10:32;98928.00;;;4.70
69435;BMP180;56625;54.322;18.582;2023-02-24T14:13:12;98926.00;;;4.68
69435;BMP180;56625;54.322;18.582;2023-02-24T14:15:43;98925.60;;;4.60
69435;BMP180;56625;54.322;18.582;2023-02-24T14:18:24;98918.20;;;4.64
69435;BMP180;56625;54.322;18.582;2023-02-24T14:20:54;98917.00;;;4.64
69435;BMP180;56625;54.322;18.582;2023-02-24T14:23:33;98916.60;;;4.64
69435;BMP180;56625;54.322;18.582;2023-02-24T14:26:06;98908.40;;;4.60
69435;BMP180;56625;54.322;18.582;2023-02-24T14:28:38;98904.20;;;4.60
69435;BMP180;56625;54.322;18.582;2023-02-24T14:31:15;98898.40;;;4.60
69435;BMP180;56625;54.322;18.582;2023-02-24T14:34:03;98899.00;;;4.60
69435;BMP180;56625;54.322;18.582;2023-02-24T14:36:36;98899.60;;;4.60
69435;BMP180;56625;54.322;18.582;2023-02-24T14:39:19;98900.20;;;4.60
69435;BMP180;56625;54.322;18.582;2023-02-24T14:41:48;98895.20;;;4.60
69435;BMP180;56625;54.322;18.582;2023-02-24T14:46:53;98886.80;;;4.50
69435;BMP180;56625;54.322;18.582;2023-02-24T14:49:27;98885.60;;;4.50
69435;BMP180;56625;54.322;18.582;2023-02-24T14:52:08;98885.20;;;4.42
69435;BMP180;56625;54.322;18.582;2023-02-24T14:57:28;98883.20;;;4.40
69435;BMP180;56625;54.322;18.582;2023-02-24T15:03:34;98879.00;;;4.40
69435;BMP180;56625;54.322;18.582;2023-02-24T15:06:17;98871.00;;;4.40
69435;BMP180;56625;54.322;18.582;2023-02-24T15:08:51;98863.20;;;4.40
69435;BMP180;56625;54.322;18.582;2023-02-24T15:11:24;98864.60;;;4.40
69435;BMP180;56625;54.322;18.582;2023-02-24T15:16:32;98863.80;;;4.30
69435;BMP180;56625;54.322;18.582;2023-02-24T15:19:03;98860.00;;;4.30
69435;BMP180;56625;54.322;18.582;2023-02-24T15:21:36;98855.20;;;4.30
69435;BMP180;56625;54.322;18.582;2023-02-24T15:24:19;98853.40;;;4.20
69435;BMP180;56625;54.322;18.582;2023-02-24T15:26:55;98849.40;;;4.20
69435;BMP180;56625;54.322;18.582;2023-02-24T15:29:28;98849.60;;;4.10
69435;BMP180;56625;54.322;18.582;2023-02-24T15:31:58;98844.60;;;4.06
69435;BMP180;56625;54.322;18.582;2023-02-24T15:34:29;98843.20;;;4.00
69435;BMP180;56625;54.322;18.582;2023-02-24T15:37:14;98841.40;;;3.98
69435;BMP180;56625;54.322;18.582;2023-02-24T15:39:43;98830.60;;;3.90
69435;BMP180;56625;54.322;18.582;2023-02-24T15:42:26;98831.40;;;3.80
69435;BMP180;56625;54.322;18.582;2023-02-24T15:45:04;98829.40;;;3.80
69435;BMP180;56625;54.322;18.582;2023-02-24T15:47:43;98823.00;;;3.70
69435;BMP180;56625;54.322;18.582;2023-02-24T15:50:11;98821.00;;;3.62
69435;BMP180;56625;54.322;18.582;2023-02-24T15:52:39;98819.00;;;3.60
69435;BMP180;56625;54.322;18.582;2023-02-24T15:55:09;98823.20;;;3.60
69435;BMP180;56625;54.322;18.582;2023-02-24T15:57:35;98821.80;;;3.60
69435;BMP180;56625;54.322;18.582;2023-02-24T16:00:04;98818.60;;;3.52
69435;BMP180;56625;54.322;18.582;2023-02-24T16:02:40;98813.80;;;3.50
69435;BMP180;56625;54.322;18.582;2023-02-24T16:05:14;98814.80;;;3.50
69435;BMP180;56625;54.322;18.582;2023-02-24T16:07:44;98813.60;;;3.50
69435;BMP180;56625;54.322;18.582;2023-02-24T16:10:25;98809.40;;;3.50
69435;BMP180;56625;54.322;18.582;2023-02-24T16:12:57;98806.00;;;3.40
69435;BMP180;56625;54.322;18.582;2023-02-24T16:15:29;98804.60;;;3.40
69435;BMP180;56625;54.322;18.582;2023-02-24T16:17:57;98802.40;;;3.40
69435;BMP180;56625;54.322;18.582;2023-02-24T16:20:26;98802.20;;;3.40
69435;BMP180;56625;54.322;18.582;2023-02-24T16:22:59;98795.00;;;3.40
69435;BMP180;56625;54.322;18.582;2023-02-24T16:25:29;98795.20;;;3.40
69435;BMP180;56625;54.322;18.582;2023-02-24T16:27:55;98789.20;;;3.40
69435;BMP180;56625;54.322;18.582;2023-02-24T16:30:26;98787.40;;;3.40
69435;BMP180;56625;54.322;18.582;2023-02-24T16:32:57;98790.00;;;3.42
69435;BMP180;56625;54.322;18.582;2023-02-24T16:35:25;98785.80;;;3.40
69435;BMP180;56625;54.322;18.582;2023-02-24T16:37:53;98780.40;;;3.40
69435;BMP180;56625;54.322;18.582;2023-02-24T16:40:27;98778.40;;;3.40
69435;BMP180;56625;54.322;18.582;2023-02-24T16:42:56;98780.60;;;3.40
69435;BMP180;56625;54.322;18.582;2023-02-24T16:45:27;98778.20;;;3.40
69435;BMP180;56625;54.322;18.582;2023-02-24T16:47:57;98775.80;;;3.40